Almont, Michigan
Current Conditions -  °F | °C
As of 1:14 AM on Wednesday 22 Oct 2014 (Local Time) from KD95 Reporting Station
Overcast Overcast  
Wind Chill: 39°   Ceiling: 1900
Heat Index: 43°   Visibility: 10mi
Dew Point: 37°   Wind: 7mph
Humidity: 78%   Direction: 20°NNE
Pressure: 30.23"   Gusts: NA
Location:  42.92°N, 83.04°W
Report Text: KD95 220514Z AUTO 02006KT 10SM OVC019 06/03 A3023 RMK AO2 T00610025
Loading
Personal Weather Stations






























Interactive Weather Map New forecast layout! Learn more

10-Day Weather Forecast

Advertisements
Track Severe Weather on mobile